createdAt,value
2022-10-10T00:00:33.582Z,84.4
2022-10-10T00:01:34.203Z,84.0
2022-10-10T00:02:34.766Z,84.4
2022-10-10T00:03:35.379Z,84.4
2022-10-10T00:04:35.993Z,84.5
2022-10-10T00:05:36.586Z,83.6
2022-10-10T00:06:37.180Z,83.8
2022-10-10T00:07:37.773Z,83.1
2022-10-10T00:08:38.366Z,83.3
2022-10-10T00:09:38.956Z,83.0
2022-10-10T00:10:39.559Z,83.0
2022-10-10T00:11:40.143Z,83.1
2022-10-10T00:12:40.735Z,83.3
2022-10-10T00:13:41.328Z,83.1
2022-10-10T00:14:41.921Z,83.0
2022-10-10T00:15:46.780Z,83.4
2022-10-10T00:16:44.096Z,83.4
2022-10-10T00:17:44.687Z,84.2
2022-10-10T00:18:45.282Z,84.0
2022-10-10T00:19:45.873Z,84.8
2022-10-10T00:20:46.467Z,84.4
2022-10-10T00:21:47.059Z,85.4
2022-10-10T00:22:47.895Z,85.0
2022-10-10T00:23:48.666Z,85.4
2022-10-10T00:24:49.259Z,84.3
2022-10-10T00:25:49.847Z,84.1
2022-10-10T00:26:50.442Z,84.6
2022-10-10T00:27:51.034Z,84.7
2022-10-10T00:28:51.627Z,84.3
2022-10-10T00:29:52.218Z,85.3
2022-10-10T00:30:52.811Z,85.1
2022-10-10T00:31:53.402Z,83.9
2022-10-10T00:32:53.994Z,83.7
2022-10-10T00:33:54.588Z,83.6
2022-10-10T00:34:55.180Z,83.8
2022-10-10T00:35:55.770Z,83.4
2022-10-10T00:36:56.362Z,83.8
2022-10-10T00:37:56.953Z,83.6
2022-10-10T00:38:57.549Z,83.6
2022-10-10T00:39:58.137Z,83.5
2022-10-10T00:40:58.733Z,82.9
2022-10-10T00:41:59.346Z,83.1
2022-10-10T00:42:59.937Z,83.5
2022-10-10T00:44:00.529Z,83.2
2022-10-10T00:45:01.124Z,84.0
2022-10-10T00:46:01.715Z,84.2
2022-10-10T00:47:02.308Z,82.5
2022-10-10T00:48:02.900Z,83.1
2022-10-10T00:49:03.543Z,83.1
2022-10-10T00:50:04.106Z,83.1
2022-10-10T00:51:04.700Z,83.3
2022-10-10T00:52:05.292Z,82.4
2022-10-10T00:53:05.883Z,82.6
2022-10-10T00:54:06.478Z,82.6
2022-10-10T00:55:07.070Z,82.8
2022-10-10T00:56:07.660Z,83.2
2022-10-10T00:57:08.253Z,83.2
2022-10-10T00:58:08.846Z,83.7
2022-10-10T00:59:09.441Z,83.7
2022-10-10T01:00:10.033Z,84.4
2022-10-10T01:01:10.696Z,84.3
2022-10-10T01:02:11.269Z,83.8
2022-10-10T01:03:11.864Z,83.6
2022-10-10T01:04:12.475Z,83.6
2022-10-10T01:05:13.067Z,84.0
2022-10-10T01:06:13.665Z,84.0
2022-10-10T01:07:14.254Z,84.1
2022-10-10T01:08:14.864Z,83.8
2022-10-10T01:09:15.439Z,84.8
2022-10-10T01:10:16.031Z,83.9
2022-10-10T01:11:16.626Z,84.1
2022-10-10T01:12:17.217Z,84.0
2022-10-10T01:13:17.808Z,83.8
2022-10-10T01:14:18.401Z,84.4
2022-10-10T01:15:18.995Z,84.4
2022-10-10T01:16:19.586Z,84.2
2022-10-10T01:17:20.180Z,84.8
2022-10-10T01:18:20.773Z,85.3
2022-10-10T01:19:21.365Z,84.1
2022-10-10T01:20:21.957Z,85.0
2022-10-10T01:21:22.551Z,85.2
2022-10-10T01:22:23.144Z,85.0
2022-10-10T01:23:23.736Z,85.1
2022-10-10T01:24:24.331Z,85.4
2022-10-10T01:25:24.923Z,85.0
2022-10-10T01:26:25.550Z,85.0
2022-10-10T01:27:30.976Z,85.5
2022-10-10T01:28:27.732Z,84.9
2022-10-10T01:29:28.845Z,85.0
2022-10-10T01:30:29.436Z,85.8
2022-10-10T01:31:30.031Z,85.7
2022-10-10T01:32:30.626Z,85.4
2022-10-10T01:33:31.236Z,85.5
2022-10-10T01:34:31.827Z,85.7
2022-10-10T01:35:32.420Z,85.6
2022-10-10T01:36:33.014Z,84.3
2022-10-10T01:37:33.604Z,84.3
2022-10-10T01:38:34.199Z,83.8
2022-10-10T01:39:34.793Z,84.4
2022-10-10T01:40:35.382Z,84.0
2022-10-10T01:41:35.976Z,83.7
2022-10-10T01:42:36.638Z,83.8
2022-10-10T01:43:37.229Z,83.9
2022-10-10T01:44:37.825Z,84.8
2022-10-10T01:45:38.419Z,83.7
2022-10-10T01:46:39.009Z,84.2
2022-10-10T01:47:39.605Z,83.5
2022-10-10T01:48:40.195Z,84.0
2022-10-10T01:49:40.790Z,84.4
2022-10-10T01:50:41.379Z,84.3
2022-10-10T01:51:41.973Z,82.6
2022-10-10T01:52:42.567Z,82.7
2022-10-10T01:53:43.160Z,82.7
2022-10-10T01:54:43.751Z,83.0
2022-10-10T01:55:44.345Z,83.4
2022-10-10T01:56:44.937Z,84.3
2022-10-10T01:57:45.531Z,83.4
2022-10-10T01:58:46.125Z,83.3
2022-10-10T01:59:46.715Z,84.0
2022-10-10T02:00:47.364Z,84.0
2022-10-10T02:01:47.901Z,83.9
2022-10-10T02:02:48.862Z,84.3
2022-10-10T02:03:49.692Z,83.9
2022-10-10T02:04:50.283Z,83.9
2022-10-10T02:05:50.878Z,83.2
2022-10-10T02:06:51.469Z,83.1
2022-10-10T02:07:52.065Z,83.7
2022-10-10T02:08:52.656Z,84.0
2022-10-10T02:09:53.249Z,85.0
2022-10-10T02:10:53.841Z,85.2
2022-10-10T02:11:54.435Z,85.3
2022-10-10T02:12:55.026Z,84.1
2022-10-10T02:13:55.618Z,84.3
2022-10-10T02:14:56.211Z,84.4
2022-10-10T02:15:56.804Z,83.7
2022-10-10T02:16:57.397Z,83.8
2022-10-10T02:17:57.988Z,84.3
2022-10-10T02:18:58.583Z,84.3
2022-10-10T02:19:59.178Z,84.2
2022-10-10T02:20:59.769Z,84.8
2022-10-10T02:22:00.363Z,85.1
2022-10-10T02:23:00.953Z,85.4
2022-10-10T02:24:01.549Z,85.3
2022-10-10T02:25:02.139Z,86.3
2022-10-10T02:26:02.732Z,86.4
2022-10-10T02:27:03.325Z,86.7
2022-10-10T02:28:04.029Z,86.9
2022-10-10T02:29:04.527Z,87.0
2022-10-10T02:30:05.141Z,86.8
2022-10-10T02:31:05.734Z,87.1
2022-10-10T02:32:06.324Z,87.4
2022-10-10T02:33:06.916Z,87.1
2022-10-10T02:34:07.509Z,87.1
2022-10-10T02:35:08.125Z,87.0
2022-10-10T02:36:08.716Z,87.2
2022-10-10T02:37:09.309Z,87.0
2022-10-10T02:38:09.901Z,86.3
2022-10-10T02:39:10.494Z,85.7
2022-10-10T02:40:11.088Z,84.9
2022-10-10T02:41:11.679Z,85.0
2022-10-10T02:42:12.275Z,85.0
2022-10-10T02:43:12.867Z,85.0
2022-10-10T02:44:13.461Z,85.2
2022-10-10T02:45:14.053Z,85.1
2022-10-10T02:46:14.669Z,84.7
2022-10-10T02:47:15.239Z,85.1
2022-10-10T02:48:15.835Z,85.6
2022-10-10T02:49:16.425Z,85.8
2022-10-10T02:50:17.020Z,85.8
2022-10-10T02:51:17.611Z,85.5
2022-10-10T02:52:18.208Z,85.9
2022-10-10T02:53:18.794Z,85.4
2022-10-10T02:54:19.389Z,85.5
2022-10-10T02:55:19.981Z,85.8
2022-10-10T02:56:20.575Z,85.9
2022-10-10T02:57:21.171Z,85.4
2022-10-10T02:58:21.779Z,86.0
2022-10-10T02:59:22.373Z,85.4
2022-10-10T03:00:22.967Z,85.4
2022-10-10T03:01:23.581Z,85.9
2022-10-10T03:02:24.154Z,85.8
2022-10-10T03:03:24.746Z,86.2
2022-10-10T03:04:25.340Z,86.2
2022-10-10T03:05:25.933Z,86.5
2022-10-10T03:06:26.525Z,86.7
2022-10-10T03:07:27.122Z,86.4
2022-10-10T03:08:27.709Z,86.3
2022-10-10T03:09:28.303Z,86.7
2022-10-10T03:10:28.895Z,86.5
2022-10-10T03:11:29.487Z,86.7
2022-10-10T03:12:30.082Z,87.1
2022-10-10T03:13:30.676Z,87.3
2022-10-10T03:14:31.266Z,87.1
2022-10-10T03:15:31.857Z,87.7
2022-10-10T03:16:32.451Z,87.6
2022-10-10T03:17:33.046Z,87.4
2022-10-10T03:18:33.639Z,87.2
2022-10-10T03:19:34.229Z,87.5
2022-10-10T03:20:34.824Z,87.2
2022-10-10T03:21:35.417Z,87.1
2022-10-10T03:22:36.012Z,86.9
2022-10-10T03:23:36.604Z,86.9
2022-10-10T03:24:37.196Z,87.1
2022-10-10T03:25:37.791Z,87.3
2022-10-10T03:26:38.384Z,87.8
2022-10-10T03:27:38.984Z,87.4
2022-10-10T03:28:39.611Z,87.8
2022-10-10T03:29:40.163Z,87.5
2022-10-10T03:30:40.758Z,87.0
2022-10-10T03:31:41.348Z,86.9
2022-10-10T03:32:41.941Z,87.3
2022-10-10T03:33:42.556Z,87.3
2022-10-10T03:34:43.147Z,87.3
2022-10-10T03:35:43.760Z,87.8
2022-10-10T03:36:44.353Z,87.8
2022-10-10T03:37:44.943Z,87.7
2022-10-10T03:38:45.539Z,87.8
2022-10-10T03:39:46.131Z,88.0
2022-10-10T03:40:46.720Z,87.9
2022-10-10T03:41:47.318Z,87.5
2022-10-10T03:42:48.182Z,88.0
2022-10-10T03:43:48.944Z,87.5
2022-10-10T03:44:49.536Z,87.8
2022-10-10T03:45:50.130Z,87.0
2022-10-10T03:46:50.723Z,86.8
2022-10-10T03:47:51.334Z,86.8
2022-10-10T03:48:51.936Z,85.9
2022-10-10T03:49:52.520Z,85.8
2022-10-10T03:50:53.112Z,85.5
2022-10-10T03:51:53.715Z,85.2
2022-10-10T03:52:54.300Z,84.1
2022-10-10T03:53:54.891Z,84.4
2022-10-10T03:54:55.489Z,84.0
2022-10-10T03:55:56.098Z,84.3
2022-10-10T03:56:56.692Z,84.2
2022-10-10T03:57:57.284Z,84.4
2022-10-10T03:58:57.880Z,84.1
2022-10-10T03:59:58.473Z,84.5
2022-10-10T04:00:59.107Z,85.0
2022-10-10T04:01:59.660Z,83.8
2022-10-10T04:03:00.274Z,83.3
2022-10-10T04:04:00.869Z,84.0
2022-10-10T04:05:01.460Z,84.7
2022-10-10T04:06:02.107Z,84.1
2022-10-10T04:07:02.646Z,83.4
2022-10-10T04:08:03.259Z,83.4
2022-10-10T04:09:03.853Z,83.4
2022-10-10T04:10:04.448Z,82.9
2022-10-10T04:11:05.037Z,84.2
2022-10-10T04:12:05.632Z,84.1
2022-10-10T04:13:06.222Z,84.7
2022-10-10T04:14:06.813Z,85.5
2022-10-10T04:15:07.410Z,85.9
2022-10-10T04:16:08.002Z,86.1
2022-10-10T04:17:08.589Z,85.5
2022-10-10T04:18:09.182Z,83.9
2022-10-10T04:19:09.778Z,83.7
2022-10-10T04:20:10.369Z,84.7
2022-10-10T04:21:10.960Z,85.0
2022-10-10T04:22:11.553Z,85.2
2022-10-10T04:23:12.147Z,85.1
2022-10-10T04:24:12.741Z,84.9
2022-10-10T04:25:13.333Z,85.0
2022-10-10T04:26:13.926Z,85.6
2022-10-10T04:27:14.518Z,85.3
2022-10-10T04:28:15.156Z,85.0
2022-10-10T04:29:15.702Z,85.6
2022-10-10T04:30:16.295Z,86.1
2022-10-10T04:31:16.904Z,86.6
2022-10-10T04:32:17.499Z,86.4
2022-10-10T04:33:18.089Z,86.5
2022-10-10T04:34:18.683Z,86.9
2022-10-10T04:35:19.278Z,87.4
2022-10-10T04:36:19.868Z,87.7
2022-10-10T04:37:20.459Z,87.5
2022-10-10T04:38:21.053Z,87.8
2022-10-10T04:39:21.647Z,87.0
2022-10-10T04:40:26.479Z,87.2
2022-10-10T04:41:23.823Z,87.1
2022-10-10T04:42:24.418Z,87.8
2022-10-10T04:43:25.010Z,88.2
2022-10-10T04:44:25.605Z,88.2
2022-10-10T04:45:26.215Z,88.3
2022-10-10T04:46:26.813Z,88.2
2022-10-10T04:47:27.399Z,88.7
2022-10-10T04:48:27.993Z,88.5
2022-10-10T04:49:28.584Z,88.4
2022-10-10T04:50:29.178Z,88.1
2022-10-10T04:51:29.769Z,88.3
2022-10-10T04:52:30.383Z,88.7
2022-10-10T04:53:30.976Z,89.2
2022-10-10T04:54:31.575Z,88.6
2022-10-10T04:55:32.161Z,88.4
2022-10-10T04:56:32.754Z,88.7
2022-10-10T04:57:33.346Z,88.6
2022-10-10T04:58:33.941Z,88.8
2022-10-10T04:59:34.534Z,88.9
2022-10-10T05:00:35.128Z,88.7
2022-10-10T05:01:35.738Z,89.1
2022-10-10T05:02:36.315Z,89.3
2022-10-10T05:03:36.926Z,89.4
2022-10-10T05:04:37.519Z,89.5
2022-10-10T05:05:38.112Z,89.5
2022-10-10T05:06:38.704Z,89.9
2022-10-10T05:07:39.302Z,90.1
2022-10-10T05:08:39.890Z,89.4
2022-10-10T05:09:40.482Z,89.5
2022-10-10T05:10:41.075Z,90.0
2022-10-10T05:11:41.668Z,89.3
2022-10-10T05:12:42.261Z,90.3
2022-10-10T05:13:42.858Z,89.5
2022-10-10T05:14:47.834Z,89.3
2022-10-10T05:15:45.032Z,89.1
2022-10-10T05:16:45.625Z,89.0
2022-10-10T05:17:46.219Z,88.5
2022-10-10T05:18:46.817Z,88.1
2022-10-10T05:19:47.404Z,87.6
2022-10-10T05:20:47.998Z,88.2
2022-10-10T05:21:48.611Z,88.3
2022-10-10T05:22:49.572Z,87.8
2022-10-10T05:23:50.282Z,87.9
2022-10-10T05:24:50.875Z,88.7
2022-10-10T05:25:51.469Z,88.4
2022-10-10T05:26:52.065Z,88.3
2022-10-10T05:27:52.657Z,88.7
2022-10-10T05:28:53.252Z,88.5
2022-10-10T05:29:54.169Z,88.8
2022-10-10T05:30:54.677Z,89.2
2022-10-10T05:31:55.272Z,89.1
2022-10-10T05:32:55.868Z,89.0
2022-10-10T05:33:56.465Z,89.0
2022-10-10T05:34:57.068Z,89.1
2022-10-10T05:35:57.678Z,88.7
2022-10-10T05:36:58.274Z,88.3
2022-10-10T05:37:58.875Z,88.7
2022-10-10T05:38:59.466Z,88.6
2022-10-10T05:40:00.067Z,88.9
2022-10-10T05:41:00.657Z,88.9
2022-10-10T05:42:01.256Z,88.2
2022-10-10T05:43:01.870Z,88.7
2022-10-10T05:44:02.466Z,88.4
2022-10-10T05:45:03.063Z,88.7
2022-10-10T05:46:03.659Z,88.4
2022-10-10T05:47:04.256Z,88.9
2022-10-10T05:48:04.871Z,88.3
2022-10-10T05:49:05.474Z,88.8
2022-10-10T05:50:06.062Z,88.7
2022-10-10T05:51:06.664Z,89.4
2022-10-10T05:52:07.279Z,89.1
2022-10-10T05:53:07.877Z,89.5
2022-10-10T05:54:08.474Z,89.9
2022-10-10T05:55:09.071Z,89.5
2022-10-10T05:56:09.669Z,89.3
2022-10-10T05:57:15.367Z,88.9
2022-10-10T05:58:11.854Z,89.0
2022-10-10T05:59:12.454Z,89.0
2022-10-10T06:00:13.046Z,88.8
2022-10-10T06:01:13.643Z,89.2
2022-10-10T06:02:14.287Z,89.3
2022-10-10T06:03:14.853Z,89.4
2022-10-10T06:04:15.449Z,89.4
2022-10-10T06:05:16.050Z,89.9
2022-10-10T06:06:16.668Z,89.9
2022-10-10T06:07:17.266Z,90.2
2022-10-10T06:08:17.865Z,89.8
2022-10-10T06:09:18.463Z,90.5
2022-10-10T06:10:19.064Z,89.6
2022-10-10T06:11:19.659Z,89.3
2022-10-10T06:12:20.259Z,89.4
2022-10-10T06:13:24.257Z,89.6
2022-10-10T06:14:22.459Z,89.4
2022-10-10T06:15:23.042Z,89.7
2022-10-10T06:16:23.638Z,89.8
2022-10-10T06:17:24.235Z,89.6
2022-10-10T06:18:24.831Z,89.6
2022-10-10T06:19:25.428Z,89.8
2022-10-10T06:20:26.024Z,90.2
2022-10-10T06:21:26.622Z,90.0
2022-10-10T06:22:27.219Z,89.7
2022-10-10T06:23:27.816Z,90.0
2022-10-10T06:24:28.507Z,89.2
2022-10-10T06:25:39.954Z,88.3
2022-10-10T06:26:30.576Z,87.8
2022-10-10T06:27:31.170Z,87.9
2022-10-10T06:28:31.823Z,87.9
2022-10-10T06:29:32.420Z,87.4
2022-10-10T06:30:33.017Z,85.8
2022-10-10T06:31:33.617Z,82.1
2022-10-10T06:32:34.220Z,77.6
2022-10-10T06:33:34.816Z,73.7
2022-10-10T06:34:35.415Z,73.1
2022-10-10T06:35:36.019Z,71.7
2022-10-10T06:36:36.634Z,69.9
2022-10-10T06:37:37.237Z,69.8
2022-10-10T06:38:37.851Z,67.2
2022-10-10T06:39:38.451Z,67.6
2022-10-10T06:40:39.048Z,66.9
2022-10-10T06:41:39.647Z,65.2
2022-10-10T06:42:40.244Z,65.2
2022-10-10T06:43:40.843Z,67.1
2022-10-10T06:44:41.442Z,67.8
2022-10-10T06:45:42.044Z,65.2
2022-10-10T06:46:42.638Z,65.7
2022-10-10T06:47:43.255Z,65.3
2022-10-10T06:48:43.851Z,65.1
2022-10-10T06:49:44.451Z,61.9
2022-10-10T06:50:45.049Z,60.2
2022-10-10T06:51:45.647Z,59.9
2022-10-10T06:52:46.247Z,61.1
2022-10-10T06:53:46.844Z,60.3
2022-10-10T06:54:47.442Z,59.9
2022-10-10T06:55:48.045Z,59.1
2022-10-10T06:56:48.637Z,58.0
2022-10-10T06:57:49.237Z,58.4
2022-10-10T06:58:49.835Z,57.5
2022-10-10T06:59:50.435Z,58.1
2022-10-10T07:00:51.053Z,57.6
2022-10-10T07:01:51.680Z,58.2
2022-10-10T07:02:52.757Z,58.2
2022-10-10T07:03:52.862Z,58.5
2022-10-10T07:04:53.464Z,58.5
2022-10-10T07:05:54.061Z,58.7
2022-10-10T07:06:54.658Z,58.7
2022-10-10T07:07:55.257Z,57.9
2022-10-10T07:08:55.904Z,57.3
2022-10-10T07:09:56.506Z,55.6
2022-10-10T07:10:57.105Z,55.4
2022-10-10T07:11:57.704Z,54.6
2022-10-10T07:12:58.304Z,56.2
2022-10-10T07:13:58.901Z,58.0
2022-10-10T07:14:59.502Z,56.4
2022-10-10T07:16:00.101Z,58.2
2022-10-10T07:17:00.718Z,58.5
2022-10-10T07:18:01.319Z,57.0
2022-10-10T07:19:01.919Z,55.2
2022-10-10T07:20:02.535Z,56.7
2022-10-10T07:21:03.141Z,55.7
2022-10-10T07:22:03.735Z,56.4
2022-10-10T07:23:04.331Z,55.8
2022-10-10T07:24:04.930Z,54.6
2022-10-10T07:25:05.527Z,55.2
2022-10-10T07:26:06.177Z,55.4
2022-10-10T07:27:08.900Z,56.4
2022-10-10T07:28:08.429Z,58.0
2022-10-10T07:29:08.986Z,59.6
2022-10-10T07:30:09.587Z,59.8
2022-10-10T07:31:10.186Z,60.2
2022-10-10T07:32:10.786Z,59.3
2022-10-10T07:33:11.386Z,59.3
2022-10-10T07:34:11.987Z,62.5
2022-10-10T07:35:12.585Z,64.4
2022-10-10T07:36:13.212Z,66.4
2022-10-10T07:37:13.831Z,66.5
2022-10-10T07:38:14.434Z,66.9
2022-10-10T07:39:17.141Z,67.2
2022-10-10T07:40:16.624Z,69.6
2022-10-10T07:41:17.223Z,71.6
2022-10-10T07:42:17.823Z,72.1
2022-10-10T07:43:18.422Z,72.4
2022-10-10T07:44:19.025Z,75.3
2022-10-10T07:45:19.645Z,75.0
2022-10-10T07:46:20.262Z,76.4
2022-10-10T07:47:20.894Z,75.9
2022-10-10T07:48:21.480Z,76.3
2022-10-10T07:49:22.080Z,75.5
2022-10-10T07:50:22.680Z,76.1
2022-10-10T07:51:23.281Z,76.0
2022-10-10T07:52:23.882Z,75.9
2022-10-10T07:53:24.551Z,76.5
2022-10-10T07:54:25.095Z,77.4
2022-10-10T07:55:25.694Z,77.9
2022-10-10T07:56:26.296Z,76.4
2022-10-10T07:57:26.894Z,77.0
2022-10-10T07:58:27.514Z,76.4
2022-10-10T07:59:28.115Z,76.8
2022-10-10T08:00:28.713Z,77.6
2022-10-10T08:01:29.344Z,77.3
2022-10-10T08:02:29.914Z,76.9
2022-10-10T08:03:30.514Z,76.7
2022-10-10T08:04:31.117Z,76.9
2022-10-10T08:05:31.718Z,77.0
2022-10-10T08:06:32.319Z,76.8
2022-10-10T08:07:32.921Z,76.1
2022-10-10T08:08:34.637Z,76.0
2022-10-10T08:09:35.116Z,76.9
2022-10-10T08:10:35.717Z,75.9
2022-10-10T08:11:36.316Z,75.7
2022-10-10T08:12:36.919Z,75.5
2022-10-10T08:13:37.516Z,77.3
2022-10-10T08:14:38.117Z,75.2
2022-10-10T08:15:38.722Z,75.4
2022-10-10T08:16:39.322Z,75.8
2022-10-10T08:17:39.921Z,75.8
2022-10-10T08:18:40.524Z,75.8
2022-10-10T08:19:41.141Z,74.2
2022-10-10T08:20:41.742Z,74.4
2022-10-10T08:21:42.343Z,75.2
2022-10-10T08:22:42.945Z,75.6
2022-10-10T08:23:43.545Z,73.7
2022-10-10T08:24:44.146Z,74.7
2022-10-10T08:25:44.746Z,74.7
2022-10-10T08:26:45.349Z,73.6
2022-10-10T08:27:45.967Z,73.9
2022-10-10T08:28:46.641Z,73.9
2022-10-10T08:29:47.238Z,74.2
2022-10-10T08:30:47.839Z,71.8
2022-10-10T08:31:48.443Z,71.7
2022-10-10T08:32:49.326Z,72.5
2022-10-10T08:33:50.133Z,73.4
2022-10-10T08:34:50.745Z,74.0
2022-10-10T08:35:51.335Z,74.0
2022-10-10T08:36:51.936Z,73.7
2022-10-10T08:37:52.540Z,74.5
2022-10-10T08:38:53.140Z,71.4
2022-10-10T08:39:53.741Z,72.0
2022-10-10T08:40:54.360Z,72.5
2022-10-10T08:41:54.960Z,71.7
2022-10-10T08:42:55.841Z,71.6
2022-10-10T08:43:56.595Z,73.1
2022-10-10T08:44:57.196Z,74.4
2022-10-10T08:45:57.801Z,73.6
2022-10-10T08:46:58.399Z,73.1
2022-10-10T08:47:59.023Z,73.6
2022-10-10T08:48:59.624Z,73.6
2022-10-10T08:50:00.226Z,73.0
2022-10-10T08:51:00.826Z,72.0
2022-10-10T08:52:01.447Z,71.7
2022-10-10T08:53:02.045Z,71.2
2022-10-10T08:54:02.647Z,70.3
2022-10-10T08:55:03.267Z,71.0
2022-10-10T08:56:03.871Z,71.2
2022-10-10T08:57:04.472Z,70.8
2022-10-10T08:58:05.074Z,71.2
2022-10-10T08:59:05.687Z,72.0
2022-10-10T09:00:06.276Z,72.4
2022-10-10T09:01:08.092Z,71.7
2022-10-10T09:02:19.443Z,72.0
2022-10-10T09:03:10.069Z,71.6
2022-10-10T09:04:10.670Z,69.8
2022-10-10T09:05:11.267Z,69.8
2022-10-10T09:06:11.868Z,69.4
2022-10-10T09:07:12.491Z,69.5
2022-10-10T09:08:13.093Z,69.8
2022-10-10T09:09:13.700Z,69.4
2022-10-10T09:10:14.295Z,69.1
2022-10-10T09:11:14.895Z,69.0
2022-10-10T09:12:15.495Z,69.1
2022-10-10T09:13:16.095Z,69.1
2022-10-10T09:14:16.695Z,68.5
2022-10-10T09:15:17.297Z,69.1
2022-10-10T09:16:17.901Z,67.4
2022-10-10T09:17:18.499Z,69.0
2022-10-10T09:18:19.110Z,69.3
2022-10-10T09:19:19.702Z,67.9
2022-10-10T09:20:20.313Z,67.4
2022-10-10T09:21:20.903Z,66.7
2022-10-10T09:22:21.527Z,67.4
2022-10-10T09:23:22.122Z,67.7
2022-10-10T09:24:22.728Z,67.5
2022-10-10T09:25:23.345Z,66.4
2022-10-10T09:26:23.955Z,66.0
2022-10-10T09:27:24.555Z,66.1
2022-10-10T09:28:25.227Z,66.6
2022-10-10T09:29:25.813Z,65.1
2022-10-10T09:30:26.413Z,65.2
2022-10-10T09:31:27.021Z,66.5
2022-10-10T09:32:27.646Z,66.3
2022-10-10T09:33:28.246Z,65.9
2022-10-10T09:34:29.282Z,66.1
2022-10-10T09:35:29.884Z,66.5
2022-10-10T09:36:30.483Z,66.3
2022-10-10T09:37:46.267Z,65.8
2022-10-10T09:38:32.678Z,65.6
2022-10-10T09:39:33.283Z,65.8
2022-10-10T09:40:33.904Z,66.3
2022-10-10T09:41:34.499Z,66.6
2022-10-10T09:42:35.103Z,66.9
2022-10-10T09:43:35.705Z,65.1
2022-10-10T09:44:36.321Z,66.6
2022-10-10T09:45:36.942Z,66.9
2022-10-10T09:46:37.545Z,66.3
2022-10-10T09:47:38.145Z,66.0
2022-10-10T09:48:38.752Z,66.7
2022-10-10T09:49:39.349Z,67.2
2022-10-10T09:50:43.107Z,66.9
2022-10-10T09:51:40.590Z,66.7
2022-10-10T09:52:41.193Z,66.6
2022-10-10T09:53:41.796Z,67.4
2022-10-10T09:54:42.475Z,66.3
2022-10-10T09:55:43.013Z,67.3
2022-10-10T09:56:43.616Z,66.7
2022-10-10T09:57:44.215Z,66.6
2022-10-10T09:58:44.816Z,67.1
2022-10-10T09:59:45.418Z,66.8
2022-10-10T10:00:46.057Z,66.6
2022-10-10T10:01:46.640Z,67.7
2022-10-10T10:02:47.243Z,66.6
2022-10-10T10:03:47.843Z,66.9
2022-10-10T10:04:48.444Z,68.0
2022-10-10T10:05:49.046Z,66.9
2022-10-10T10:06:49.647Z,66.6
2022-10-10T10:07:50.251Z,66.5
2022-10-10T10:08:50.861Z,66.7
2022-10-10T10:09:51.526Z,66.4
2022-10-10T10:10:52.071Z,67.1
2022-10-10T10:11:52.671Z,66.9
2022-10-10T10:12:53.272Z,67.3
2022-10-10T10:13:53.872Z,66.9
2022-10-10T10:14:54.473Z,67.8
2022-10-10T10:15:55.076Z,67.9
2022-10-10T10:16:55.680Z,67.8
2022-10-10T10:17:56.281Z,67.3
2022-10-10T10:18:56.885Z,67.2
2022-10-10T10:19:57.484Z,67.2
2022-10-10T10:20:58.373Z,67.2
2022-10-10T10:21:59.103Z,67.9
2022-10-10T10:22:59.705Z,67.8
2022-10-10T10:24:00.327Z,67.2
2022-10-10T10:25:00.929Z,66.7
2022-10-10T10:26:01.970Z,67.1
2022-10-10T10:27:02.716Z,66.6
2022-10-10T10:28:03.320Z,66.9
2022-10-10T10:29:03.943Z,67.8
2022-10-10T10:30:04.543Z,67.6
2022-10-10T10:31:05.145Z,67.9
2022-10-10T10:32:05.745Z,67.1
2022-10-10T10:33:06.348Z,66.6
2022-10-10T10:34:06.966Z,66.6
2022-10-10T10:35:07.567Z,66.8
2022-10-10T10:36:08.195Z,66.7
2022-10-10T10:37:13.956Z,67.5
2022-10-10T10:38:10.386Z,68.0
2022-10-10T10:39:10.989Z,67.0
2022-10-10T10:40:11.589Z,67.0
2022-10-10T10:41:12.209Z,66.2
2022-10-10T10:42:12.810Z,66.5
2022-10-10T10:43:13.414Z,66.5
2022-10-10T10:44:14.013Z,66.6
2022-10-10T10:45:14.614Z,66.9
2022-10-10T10:46:15.214Z,66.7
2022-10-10T10:47:15.818Z,66.6
2022-10-10T10:48:16.417Z,66.9
2022-10-10T10:49:17.999Z,66.9
2022-10-10T10:50:18.615Z,66.7
2022-10-10T10:51:19.215Z,66.8
2022-10-10T10:52:19.818Z,66.9
2022-10-10T10:53:20.419Z,66.4
2022-10-10T10:54:21.015Z,66.5
2022-10-10T10:55:21.617Z,65.8
2022-10-10T10:56:22.274Z,66.2
2022-10-10T10:57:32.886Z,66.3
2022-10-10T11:00:21.688Z,65.4
2022-10-10T11:01:20.189Z,65.4
2022-10-10T11:01:44.789Z,64.6
2022-10-10T11:02:54.374Z,65.0
2022-10-10T11:05:17.265Z,65.1
2022-10-10T11:05:18.127Z,64.3
2022-10-10T11:05:40.944Z,64.8
2022-10-10T11:06:35.432Z,64.7
2022-10-10T11:07:36.159Z,65.1
2022-10-10T11:08:36.752Z,65.1
2022-10-10T11:09:49.793Z,63.8
2022-10-10T11:10:38.832Z,63.7
2022-10-10T11:11:39.435Z,65.1
2022-10-10T11:12:40.055Z,63.4
2022-10-10T11:13:40.657Z,63.4
2022-10-10T11:14:41.257Z,63.5
2022-10-10T11:16:48.427Z,62.6
2022-10-10T11:17:44.978Z,62.4
2022-10-10T11:18:45.594Z,61.7
2022-10-10T11:19:46.204Z,61.8
2022-10-10T11:20:46.799Z,62.4
2022-10-10T11:21:47.401Z,62.7
2022-10-10T11:22:48.021Z,62.0
2022-10-10T11:23:48.623Z,62.4
2022-10-10T11:24:49.255Z,61.3
2022-10-10T11:25:49.850Z,61.5
2022-10-10T11:26:50.450Z,61.7
2022-10-10T11:27:51.052Z,61.8
2022-10-10T11:28:51.689Z,61.6
2022-10-10T11:29:52.357Z,61.6
2022-10-10T11:30:52.956Z,60.7
2022-10-10T11:31:53.556Z,62.0
2022-10-10T11:32:54.163Z,61.5
2022-10-10T11:33:57.266Z,61.6
2022-10-10T11:34:56.373Z,60.9
2022-10-10T11:35:57.258Z,61.2
2022-10-10T11:36:57.593Z,60.7
2022-10-10T11:37:58.197Z,61.0
2022-10-10T11:38:58.799Z,60.5
2022-10-10T11:39:59.400Z,60.9
2022-10-10T11:41:00.095Z,60.6
2022-10-10T11:42:00.619Z,60.9
2022-10-10T11:43:01.220Z,61.0
2022-10-10T11:44:01.821Z,60.2
2022-10-10T11:45:02.424Z,60.9
2022-10-10T11:46:03.461Z,60.9
2022-10-10T11:47:04.070Z,60.7
2022-10-10T11:48:04.673Z,60.4
2022-10-10T11:49:05.273Z,59.8
2022-10-10T11:50:05.887Z,59.7
2022-10-10T11:51:06.495Z,59.2
2022-10-10T11:52:31.961Z,59.8
2022-10-10T11:53:08.689Z,59.9
2022-10-10T11:54:09.292Z,58.9
2022-10-10T11:55:09.892Z,59.3
2022-10-10T11:56:10.493Z,58.8
2022-10-10T11:57:12.977Z,58.3
2022-10-10T11:58:12.691Z,59.1
2022-10-10T11:59:13.290Z,57.6
2022-10-10T12:00:13.893Z,58.3
2022-10-10T12:01:14.494Z,58.1
2022-10-10T12:02:15.099Z,57.8
2022-10-10T12:03:15.697Z,57.7
2022-10-10T12:04:16.299Z,57.8
2022-10-10T12:05:16.921Z,58.5
2022-10-10T12:06:17.522Z,58.5
2022-10-10T12:07:18.150Z,58.3
2022-10-10T12:08:18.757Z,58.6
2022-10-10T12:09:19.358Z,58.9
2022-10-10T12:10:19.952Z,57.8
2022-10-10T12:11:20.553Z,57.9
2022-10-10T12:12:21.158Z,58.3
2022-10-10T12:13:21.757Z,57.8
2022-10-10T12:14:22.361Z,58.2
2022-10-10T12:15:22.961Z,59.4
2022-10-10T12:16:28.198Z,59.8
2022-10-10T12:17:24.180Z,59.1
2022-10-10T12:18:24.782Z,58.3
2022-10-10T12:19:25.385Z,57.8
2022-10-10T12:20:25.986Z,58.9
2022-10-10T12:21:26.590Z,58.5
2022-10-10T12:22:27.191Z,58.8
2022-10-10T12:23:27.813Z,58.2
2022-10-10T12:24:28.413Z,58.4
2022-10-10T12:25:29.014Z,58.0
2022-10-10T12:26:29.613Z,58.5
2022-10-10T12:27:30.215Z,58.0
2022-10-10T12:28:30.887Z,58.2
2022-10-10T12:29:31.454Z,57.4
2022-10-10T12:30:32.052Z,57.5
2022-10-10T12:31:32.654Z,57.4
2022-10-10T12:32:33.256Z,58.1
2022-10-10T12:33:33.859Z,54.9
2022-10-10T12:34:34.457Z,55.7
2022-10-10T12:35:35.059Z,55.5
2022-10-10T12:36:35.657Z,55.4
2022-10-10T12:37:36.386Z,56.5
2022-10-10T12:38:36.956Z,57.4
2022-10-10T12:39:37.559Z,55.8
2022-10-10T12:40:38.177Z,56.1
2022-10-10T12:41:40.469Z,55.8
2022-10-10T12:42:39.394Z,56.5
2022-10-10T12:43:39.999Z,56.9
2022-10-10T12:44:40.598Z,56.9
2022-10-10T12:45:41.199Z,57.6
2022-10-10T12:46:41.820Z,57.6
2022-10-10T12:48:03.834Z,58.0
2022-10-10T12:48:44.065Z,57.7
2022-10-10T12:49:44.688Z,57.9
2022-10-10T12:50:45.288Z,56.9
2022-10-10T12:51:45.905Z,57.5
2022-10-10T12:52:46.510Z,57.5
2022-10-10T12:53:47.134Z,57.4
2022-10-10T12:54:47.711Z,58.0
2022-10-10T12:55:48.313Z,57.9
2022-10-10T12:56:48.935Z,57.0
2022-10-10T12:57:49.560Z,57.4
2022-10-10T12:58:50.161Z,55.5
2022-10-10T12:59:50.761Z,57.4
2022-10-10T13:00:51.362Z,56.0
2022-10-10T13:01:52.018Z,55.6
2022-10-10T13:02:52.622Z,55.6
2022-10-10T13:03:53.234Z,55.4
2022-10-10T13:04:53.824Z,55.6
2022-10-10T13:05:54.472Z,54.8
2022-10-10T13:06:55.063Z,55.5
2022-10-10T13:07:55.667Z,56.4
2022-10-10T13:08:56.268Z,55.4
2022-10-10T13:09:56.889Z,55.9
2022-10-10T13:10:57.490Z,55.7
2022-10-10T13:11:58.091Z,55.1
2022-10-10T13:12:58.693Z,55.9
2022-10-10T13:13:59.314Z,55.8
2022-10-10T13:14:59.913Z,56.8
2022-10-10T13:16:00.514Z,57.2
2022-10-10T13:17:01.120Z,56.7
2022-10-10T13:18:01.721Z,57.2
2022-10-10T13:19:02.324Z,57.3
2022-10-10T13:20:02.951Z,57.0
2022-10-10T13:21:04.085Z,57.2
2022-10-10T13:22:04.956Z,56.7
2022-10-10T13:23:05.558Z,55.8
2022-10-10T13:24:06.160Z,56.6
2022-10-10T13:25:06.764Z,57.5
2022-10-10T13:26:07.468Z,56.1
2022-10-10T13:27:08.012Z,57.1
2022-10-10T13:28:08.639Z,56.9
2022-10-10T13:29:09.226Z,57.4